Time;durP1;ratioP1;P1;durP2;ratioP2;P2;SDS_P1;SDS_P2;PMS_P1;PMS_P2;Temp;Humidity;BMP_temperature;BMP_pressure;BME280_temperature;BME280_humidity;BME280_pressure;Samples;Min_cycle;Max_cycle;Signal;HPM_P1;HPM_P2
2022/02/17 00:00:37;;;;;;;9.68;1.15;;;;;;;8.34;61.02;98173.91;4981816;28;20042;-58
2022/02/17 00:03:04;;;;;;;12.43;0.90;;;;;;;8.33;61.81;98177.38;4981458;28;20552;-59
2022/02/17 00:05:30;;;;;;;12.27;0.80;;;;;;;8.33;61.42;98182.53;4979629;28;20470;-56
2022/02/17 00:07:58;;;;;;;8.57;0.88;;;;;;;8.34;61.48;98191.97;4977280;28;20101;-58
2022/02/17 00:10:27;;;;;;;11.50;1.40;;;;;;;8.37;62.37;98199.63;4980799;28;20997;-57
2022/02/17 00:12:57;;;;;;;6.97;0.70;;;;;;;8.36;62.50;98218.59;4978173;28;20054;-55
2022/02/17 00:15:25;;;;;;;8.07;0.90;;;;;;;8.34;62.27;98220.34;4979317;28;20051;-59
2022/02/17 00:17:52;;;;;;;7.63;1.10;;;;;;;8.34;63.41;98199.69;4981580;28;20112;-58
2022/02/17 00:20:18;;;;;;;9.75;1.10;;;;;;;8.39;62.77;98223.69;4987044;28;20642;-57
2022/02/17 00:22:45;;;;;;;7.93;1.23;;;;;;;8.36;62.90;98223.75;4986626;28;20043;-58
2022/02/17 00:25:12;;;;;;;10.48;0.70;;;;;;;8.40;63.55;98240.84;4982424;28;20046;-56
2022/02/17 00:27:39;;;;;;;7.07;0.80;;;;;;;8.38;63.54;98263.25;4983234;28;20138;-57
2022/02/17 00:30:08;;;;;;;13.80;1.00;;;;;;;8.35;63.01;98263.31;4982668;28;20107;-56
2022/02/17 00:32:37;;;;;;;5.55;1.33;;;;;;;8.26;64.28;98266.09;4979531;28;20046;-57
2022/02/17 00:35:06;;;;;;;3.95;0.73;;;;;;;8.16;65.09;98284.34;4975906;28;20054;-59
2022/02/17 00:37:32;;;;;;;5.70;0.80;;;;;;;8.14;65.39;98270.63;4977617;28;20050;-58
2022/02/17 00:39:59;;;;;;;8.23;1.48;;;;;;;8.15;64.95;98287.81;4978575;28;20050;-58
2022/02/17 00:42:26;;;;;;;3.90;0.73;;;;;;;8.12;65.07;98294.75;4982582;28;20062;-57
2022/02/17 00:44:53;;;;;;;5.80;0.80;;;;;;;8.10;64.88;98299.94;4984718;28;20501;-58
2022/02/17 00:47:20;;;;;;;13.88;1.00;;;;;;;8.11;64.39;98301.66;4985373;28;20058;-57
2022/02/17 00:49:47;;;;;;;8.93;0.82;;;;;;;8.10;65.21;98299.94;4986023;28;20091;-57
2022/02/17 00:52:14;;;;;;;11.02;0.93;;;;;;;8.12;64.91;98295.63;4986847;28;20050;-56
2022/02/17 00:54:41;;;;;;;9.38;1.40;;;;;;;8.10;65.43;98310.25;4988748;28;20046;-57
2022/02/17 00:57:08;;;;;;;7.45;2.40;;;;;;;8.11;64.67;98317.13;4985429;28;20066;-57
2022/02/17 00:59:35;;;;;;;8.30;1.02;;;;;;;8.13;65.45;98320.53;4986141;28;20057;-57
2022/02/17 01:02:01;;;;;;;7.78;1.48;;;;;;;8.12;64.82;98313.69;4983193;28;20053;-58
2022/02/17 01:04:28;;;;;;;10.05;2.03;;;;;;;8.16;65.24;98325.63;4984968;28;20410;-57
2022/02/17 01:06:55;;;;;;;10.80;1.10;;;;;;;8.15;64.47;98329.09;4984368;28;20089;-57
2022/02/17 01:09:21;;;;;;;12.77;1.40;;;;;;;8.15;65.02;98354.88;4983272;28;20054;-58
2022/02/17 01:11:48;;;;;;;7.53;1.13;;;;;;;8.16;64.05;98341.09;4988368;28;20046;-58
2022/02/17 01:14:15;;;;;;;5.63;1.00;;;;;;;8.19;63.57;98341.03;4988059;28;20062;-58
2022/02/17 01:16:42;;;;;;;12.27;1.40;;;;;;;8.23;63.90;98359.88;4987844;28;20517;-57
2022/02/17 01:19:10;;;;;;;9.38;1.42;;;;;;;8.23;63.30;98368.47;4986748;28;20402;-54
2022/02/17 01:21:37;;;;;;;7.57;0.80;;;;;;;8.26;62.96;98366.69;4987760;28;20080;-57
2022/02/17 01:24:05;;;;;;;10.25;0.70;;;;;;;8.29;62.71;98382.09;4984558;28;20081;-59
2022/02/17 01:26:34;;;;;;;5.00;0.77;;;;;;;8.31;62.59;98388.09;4986807;28;20046;-58
2022/02/17 01:29:02;;;;;;;7.68;0.70;;;;;;;8.32;61.83;98403.56;4986415;28;20125;-56
2022/02/17 01:31:33;;;;;;;10.50;2.22;;;;;;;8.31;61.71;98386.34;4981204;28;20066;-58
2022/02/17 01:34:01;;;;;;;4.82;0.98;;;;;;;8.32;61.70;98382.06;4988469;28;20652;-56
2022/02/17 01:36:28;;;;;;;7.35;1.48;;;;;;;8.34;62.06;98411.22;4985102;28;20425;-58
2022/02/17 01:38:55;;;;;;;4.72;1.05;;;;;;;8.34;61.95;98411.22;4990655;28;20169;-58
2022/02/17 01:41:22;;;;;;;10.82;1.15;;;;;;;8.33;61.45;98435.34;4988464;28;20109;-57
2022/02/17 01:43:49;;;;;;;4.30;0.90;;;;;;;8.29;61.49;98444.00;4991315;28;20105;-58
2022/02/17 01:46:16;;;;;;;1.52;0.60;;;;;;;8.27;61.59;98450.94;4989478;28;20042;-59
2022/02/17 01:48:43;;;;;;;6.30;0.75;;;;;;;8.25;62.78;98452.69;4990001;28;20046;-57
2022/02/17 01:51:10;;;;;;;2.30;0.20;;;;;;;8.15;62.51;98463.19;4990461;28;20077;-59
2022/02/17 01:53:37;;;;;;;1.40;0.45;;;;;;;8.04;63.00;98470.28;4989116;28;20078;-56
2022/02/17 01:56:04;;;;;;;3.92;1.25;;;;;;;7.93;63.99;98476.47;4988091;28;20518;-56
2022/02/17 01:58:33;;;;;;;5.55;0.40;;;;;;;7.88;63.49;98491.16;4992492;28;20622;-59
2022/02/17 02:01:02;;;;;;;4.47;0.70;;;;;;;7.78;64.25;98485.31;4986821;28;20050;-57
2022/02/17 02:03:29;;;;;;;8.27;0.80;;;;;;;7.76;64.75;98491.34;4985030;28;20054;-58
2022/02/17 02:05:55;;;;;;;8.90;0.98;;;;;;;7.67;64.56;98494.94;4990686;28;20050;-58
2022/02/17 02:08:22;;;;;;;10.27;0.77;;;;;;;7.62;64.66;98507.03;4989016;28;20113;-56
2022/02/17 02:10:49;;;;;;;9.23;1.00;;;;;;;7.62;65.56;98510.47;4990198;28;20090;-56
2022/02/17 02:13:15;;;;;;;12.25;0.63;;;;;;;7.58;65.15;98516.53;4990549;28;20145;-57
2022/02/17 02:15:45;;;;;;;4.40;0.70;;;;;;;7.53;66.36;98513.19;4987568;28;20053;-57
2022/02/17 02:18:12;;;;;;;8.48;0.80;;;;;;;7.52;65.69;98520.06;4989013;28;20054;-57
2022/02/17 02:20:42;;;;;;;8.02;1.17;;;;;;;7.50;65.47;98515.81;4989831;28;20054;-58
2022/02/17 02:23:09;;;;;;;7.88;1.60;;;;;;;7.52;65.69;98514.91;4990233;28;20074;-55
2022/02/17 02:25:36;;;;;;;9.88;0.98;;;;;;;7.46;66.53;98515.84;4991301;28;20054;-56
2022/02/17 02:28:02;;;;;;;14.55;1.83;;;;;;;7.48;65.59;98528.72;4987140;28;20466;-57
2022/02/17 02:30:29;;;;;;;4.18;2.42;;;;;;;7.43;64.91;98521.03;4987110;28;20058;-59
2022/02/17 02:32:55;;;;;;;12.02;1.63;;;;;;;7.39;65.09;98524.53;4988543;28;20104;-56
2022/02/17 02:35:22;;;;;;;5.38;0.65;;;;;;;7.40;65.36;98526.22;4990753;28;20054;-56
2022/02/17 02:37:49;;;;;;;6.47;0.75;;;;;;;7.39;64.57;98529.69;4989591;28;20047;-59
2022/02/17 02:40:15;;;;;;;5.72;1.75;;;;;;;7.37;64.69;98536.59;4989626;28;20097;-57
2022/02/17 02:42:45;;;;;;;9.27;1.67;;;;;;;7.36;64.48;98547.75;4989888;28;20042;-58
2022/02/17 02:45:11;;;;;;;13.15;1.77;;;;;;;7.36;64.34;98550.34;4989546;28;20717;-54
2022/02/17 02:47:38;;;;;;;6.93;2.05;;;;;;;7.33;65.22;98551.22;4988331;28;20058;-56
2022/02/17 02:50:05;;;;;;;18.25;1.20;;;;;;;7.33;64.13;98561.53;4991626;28;20050;-57
2022/02/17 02:52:31;;;;;;;5.07;1.15;;;;;;;7.30;64.15;98550.44;4986992;28;20042;-56
2022/02/17 02:54:58;;;;;;;4.93;0.95;;;;;;;7.28;64.17;98558.19;4987825;28;20108;-57
2022/02/17 02:57:25;;;;;;;9.95;2.15;;;;;;;7.28;64.30;98575.34;4984537;28;20126;-57
2022/02/17 02:59:52;;;;;;;8.35;1.50;;;;;;;7.27;65.04;98571.06;4981294;28;20062;-58
2022/02/17 03:02:18;;;;;;;10.75;0.88;;;;;;;7.26;63.64;98575.38;4988251;28;20694;-57
2022/02/17 03:04:45;;;;;;;6.90;1.02;;;;;;;7.26;63.99;98565.06;4987230;28;20058;-58
2022/02/17 03:07:12;;;;;;;5.55;1.85;;;;;;;7.27;63.61;98587.38;4984163;28;20101;-58
2022/02/17 03:09:38;;;;;;;5.38;0.85;;;;;;;7.26;63.04;98584.84;4981597;28;20121;-55
2022/02/17 03:12:05;;;;;;;7.93;0.63;;;;;;;7.24;64.24;98581.41;4984892;28;20557;-58
2022/02/17 03:14:32;;;;;;;5.70;0.95;;;;;;;7.18;62.75;98606.38;4984334;28;20054;-58
2022/02/17 03:16:58;;;;;;;6.43;2.38;;;;;;;7.20;62.57;98612.34;4982904;28;20108;-56
2022/02/17 03:19:25;;;;;;;4.95;0.82;;;;;;;7.19;63.55;98602.94;4986740;28;20038;-58
2022/02/17 03:21:53;;;;;;;5.88;0.70;;;;;;;7.13;64.01;98636.47;4985797;28;20074;-56
2022/02/17 03:24:20;;;;;;;4.90;0.70;;;;;;;7.10;62.95;98631.38;4988087;28;20054;-57
2022/02/17 03:26:46;;;;;;;9.05;0.90;;;;;;;7.13;63.37;98640.78;4984517;28;20050;-58
2022/02/17 03:29:13;;;;;;;7.57;0.90;;;;;;;7.11;63.20;98647.66;4985668;28;20096;-57
2022/02/17 03:31:40;;;;;;;6.05;0.77;;;;;;;7.10;64.08;98662.28;4985213;28;20626;-58
2022/02/17 03:34:06;;;;;;;5.68;1.17;;;;;;;7.10;62.64;98662.28;4986272;28;20050;-58
2022/02/17 03:36:33;;;;;;;8.70;1.95;;;;;;;7.09;63.00;98651.97;4981951;28;20047;-56
2022/02/17 03:39:01;;;;;;;8.43;0.90;;;;;;;7.05;63.65;98674.31;4983577;28;20521;-58
2022/02/17 03:41:29;;;;;;;3.83;0.75;;;;;;;7.04;63.39;98683.78;4988127;28;20042;-57
2022/02/17 03:43:55;;;;;;;4.13;1.63;;;;;;;7.01;63.41;98682.94;4984211;28;20058;-57
2022/02/17 03:46:22;;;;;;;3.30;0.43;;;;;;;7.00;64.05;98688.97;4983403;28;20048;-56
2022/02/17 03:48:49;;;;;;;5.65;0.47;;;;;;;6.99;63.82;98685.53;4984384;28;20550;-55
2022/02/17 03:51:15;;;;;;;7.13;1.98;;;;;;;6.98;62.29;98688.97;4985555;28;20655;-57
2022/02/17 03:53:42;;;;;;;6.45;0.60;;;;;;;6.94;62.07;98689.88;4986806;28;20506;-58
2022/02/17 03:56:08;;;;;;;1.20;0.25;;;;;;;6.90;63.37;98706.22;4984283;28;20050;-58
2022/02/17 04:01:21;;;;;;;6.15;0.60;;;;;;;6.85;62.43;98711.41;4997478;28;20490;-56
2022/02/17 04:03:48;;;;;;;3.88;0.60;;;;;;;6.80;62.80;98710.59;4984648;28;20645;-55
2022/02/17 04:06:14;;;;;;;7.18;1.17;;;;;;;6.74;62.26;98716.66;4988339;28;20510;-55
2022/02/17 04:08:41;;;;;;;2.95;1.63;;;;;;;6.75;62.65;98727.81;4987475;28;20550;-56
2022/02/17 04:11:08;;;;;;;4.68;2.45;;;;;;;6.71;62.21;98741.53;4982318;28;20089;-58
2022/02/17 04:13:34;;;;;;;3.90;0.43;;;;;;;6.67;62.10;98751.03;4985136;28;20568;-57
2022/02/17 04:16:01;;;;;;;6.90;0.60;;;;;;;6.67;61.51;98754.47;4985826;28;20054;-55
2022/02/17 04:18:28;;;;;;;4.72;0.30;;;;;;;6.61;62.17;98762.22;4984676;28;20061;-57
2022/02/17 04:20:55;;;;;;;3.63;1.60;;;;;;;6.61;63.01;98781.94;4983586;28;20080;-56
2022/02/17 04:23:22;;;;;;;5.22;0.35;;;;;;;6.54;62.21;98786.28;4984463;28;20565;-57
2022/02/17 04:25:48;;;;;;;4.72;1.08;;;;;;;6.54;61.39;98786.28;4986392;28;20494;-57
2022/02/17 04:28:15;;;;;;;4.93;0.57;;;;;;;6.51;62.50;98797.44;4984050;28;20112;-57
2022/02/17 04:30:42;;;;;;;2.30;0.25;;;;;;;6.48;62.23;98796.63;4985350;28;20058;-58
2022/02/17 04:33:08;;;;;;;4.80;0.60;;;;;;;6.45;62.51;98801.78;4983421;28;20058;-56
2022/02/17 04:35:35;;;;;;;5.72;0.52;;;;;;;6.40;61.36;98805.22;4982111;28;20051;-57
2022/02/17 04:38:01;;;;;;;4.43;0.32;;;;;;;6.37;62.15;98804.38;4981511;28;20058;-57
2022/02/17 04:43:14;;;;;;;5.10;0.50;;;;;;;6.34;61.99;98814.69;4983052;28;20069;-55
2022/02/17 04:45:41;;;;;;;4.90;0.52;;;;;;;6.25;62.79;98813.88;4983478;28;20057;-58
2022/02/17 04:48:08;;;;;;;3.17;1.25;;;;;;;6.27;62.60;98824.16;4983118;28;20148;-57
2022/02/17 04:50:34;;;;;;;7.65;0.50;;;;;;;6.24;62.44;98832.72;4982793;28;20047;-58
2022/02/17 04:53:01;;;;;;;2.55;1.92;;;;;;;6.20;61.93;98830.19;4981190;28;20086;-54
2022/02/17 04:55:27;;;;;;;2.95;0.63;;;;;;;6.22;62.14;98841.31;4981054;28;20105;-59
2022/02/17 04:57:54;;;;;;;3.40;0.60;;;;;;;6.18;62.72;98837.88;4984662;28;20054;-58
2022/02/17 05:00:21;;;;;;;5.10;0.30;;;;;;;6.13;62.87;98848.22;4983844;28;20050;-58
2022/02/17 05:02:47;;;;;;;3.35;1.85;;;;;;;6.12;61.74;98851.63;4980400;28;20094;-56
2022/02/17 05:05:14;;;;;;;7.18;2.22;;;;;;;6.08;62.46;98849.94;4985269;28;20054;-56
2022/02/17 05:07:41;;;;;;;3.40;0.63;;;;;;;6.06;63.09;98856.81;4981600;28;20104;-58
2022/02/17 05:10:08;;;;;;;4.20;0.30;;;;;;;6.03;62.20;98862.81;4984464;28;20043;-60
2022/02/17 05:12:34;;;;;;;6.40;0.45;;;;;;;6.01;62.92;98868.81;4990826;28;20093;-59
2022/02/17 05:15:01;;;;;;;6.75;0.73;;;;;;;5.98;63.40;98874.78;4991476;28;20120;-55
2022/02/17 05:17:28;;;;;;;3.38;0.70;;;;;;;5.97;63.53;98869.63;4987568;28;20414;-55
2022/02/17 05:19:54;;;;;;;6.72;1.45;;;;;;;5.94;63.49;98883.38;4993075;28;20038;-54
2022/02/17 05:22:21;;;;;;;5.85;2.08;;;;;;;5.94;64.19;98892.81;4991319;28;20062;-55
2022/02/17 05:24:47;;;;;;;7.15;1.45;;;;;;;5.91;64.17;98904.78;4986543;28;20203;-55
2022/02/17 05:27:14;;;;;;;5.30;0.60;;;;;;;5.89;64.24;98911.66;4989122;28;20050;-59
2022/02/17 05:29:41;;;;;;;2.70;0.50;;;;;;;5.86;64.95;98906.53;4992496;28;20157;-57
2022/02/17 05:32:07;;;;;;;5.90;0.75;;;;;;;5.85;63.51;98921.94;4990222;28;20058;-57
2022/02/17 05:34:34;;;;;;;6.15;0.85;;;;;;;5.82;64.77;98929.66;4987464;28;20046;-58
2022/02/17 05:37:01;;;;;;;3.63;0.32;;;;;;;5.79;65.63;98925.38;4989809;28;20082;-58
2022/02/17 05:39:27;;;;;;;6.30;0.50;;;;;;;5.77;64.81;98930.50;4992278;28;20046;-56
2022/02/17 05:41:54;;;;;;;3.20;0.35;;;;;;;5.73;65.81;98915.97;4987976;28;20043;-58
2022/02/17 05:44:21;;;;;;;4.72;0.95;;;;;;;5.75;65.46;98921.94;4987919;28;20498;-58
2022/02/17 05:46:47;;;;;;;6.30;2.03;;;;;;;5.79;65.91;98930.50;4992842;28;20146;-52
2022/02/17 05:49:14;;;;;;;5.80;0.43;;;;;;;5.83;65.62;98932.22;4989705;28;20058;-57
2022/02/17 05:51:42;;;;;;;5.60;0.63;;;;;;;5.87;64.82;98944.22;4992968;28;20433;-57
2022/02/17 05:54:08;;;;;;;6.22;2.15;;;;;;;5.92;65.68;98942.47;4989425;28;20132;-57
2022/02/17 05:56:35;;;;;;;10.43;1.85;;;;;;;5.95;66.14;98945.91;4989169;28;20054;-57
2022/02/17 05:59:01;;;;;;;7.45;2.17;;;;;;;5.99;65.37;98952.75;4991208;28;20054;-57
2022/02/17 06:01:28;;;;;;;3.85;0.60;;;;;;;6.01;64.95;98946.75;4989025;28;20050;-58
2022/02/17 06:03:54;;;;;;;5.18;1.10;;;;;;;6.07;65.92;98948.50;4991061;28;20038;-55
2022/02/17 06:06:21;;;;;;;7.13;1.77;;;;;;;6.07;64.92;98951.06;4991363;28;20046;-57
2022/02/17 06:08:50;;;;;;;7.97;0.98;;;;;;;6.08;64.52;98946.78;4992117;28;20046;-55
2022/02/17 06:11:17;;;;;;;4.53;1.25;;;;;;;6.09;65.18;98954.50;4992075;28;20101;-57
2022/02/17 06:13:43;;;;;;;6.60;1.05;;;;;;;6.13;65.86;98960.47;4993670;28;20046;-54
2022/02/17 06:16:10;;;;;;;4.85;1.50;;;;;;;6.14;65.48;98957.91;4988185;28;20054;-57
2022/02/17 06:18:37;;;;;;;5.38;1.83;;;;;;;6.16;66.07;98965.63;4990678;28;20046;-59
2022/02/17 06:21:03;;;;;;;5.75;0.90;;;;;;;6.18;65.13;98969.03;4988569;28;20058;-57
2022/02/17 06:23:30;;;;;;;4.50;1.77;;;;;;;6.21;65.49;98988.75;4986739;28;20038;-57
2022/02/17 06:25:56;;;;;;;4.43;0.40;;;;;;;6.17;66.07;99004.19;4986767;28;20070;-58
2022/02/17 06:28:23;;;;;;;3.05;0.40;;;;;;;6.11;67.13;99008.50;4987493;28;20491;-58
2022/02/17 06:30:50;;;;;;;5.30;0.70;;;;;;;6.07;67.65;98996.47;4983890;28;20054;-58
2022/02/17 06:33:16;;;;;;;3.80;1.60;;;;;;;6.00;66.95;98990.44;4990311;28;20042;-55
2022/02/17 06:35:43;;;;;;;3.58;0.63;;;;;;;5.92;67.87;99009.31;4985696;28;20058;-55
2022/02/17 06:38:09;;;;;;;5.88;2.17;;;;;;;5.86;66.56;99008.47;4986069;28;20659;-56
2022/02/17 06:40:36;;;;;;;3.83;1.60;;;;;;;5.74;66.42;99009.34;4988093;28;20112;-56
2022/02/17 06:43:08;;;;;;;5.22;1.77;;;;;;;5.72;67.22;99013.59;4986162;28;20120;-57
2022/02/17 06:45:36;;;;;;;4.80;0.38;;;;;;;5.64;67.50;99017.00;4987636;28;20046;-56
2022/02/17 06:48:04;;;;;;;3.78;0.95;;;;;;;5.62;67.83;99008.47;4982526;28;20105;-58
2022/02/17 06:50:31;;;;;;;8.10;0.80;;;;;;;5.57;67.80;99012.72;4982598;28;20549;-57
2022/02/17 06:52:59;;;;;;;6.82;0.43;;;;;;;5.53;66.51;99017.00;4983649;28;20113;-58
2022/02/17 06:55:25;;;;;;;5.68;2.45;;;;;;;5.50;66.95;99018.69;4984808;28;20046;-57
2022/02/17 06:57:53;;;;;;;4.10;0.50;;;;;;;5.46;67.96;99020.44;4987993;28;20042;-57
2022/02/17 07:00:20;;;;;;;3.90;0.47;;;;;;;5.42;67.26;99025.53;4988095;28;20388;-55
2022/02/17 07:02:51;;;;;;;4.40;0.50;;;;;;;5.40;66.47;99025.53;4987859;28;20050;-56
2022/02/17 07:05:21;;;;;;;6.68;1.98;;;;;;;5.37;67.75;99026.41;4983860;28;20053;-58
2022/02/17 07:07:48;;;;;;;6.80;0.30;;;;;;;5.36;66.96;99031.53;4985252;28;20517;-56
2022/02/17 07:10:54;;;;;;;6.00;0.40;;;;;;;5.34;67.40;99031.50;4986248;28;20058;-57
2022/02/17 07:13:03;;;;;;;4.10;2.20;;;;;;;5.32;66.63;99043.50;5013207;28;20541;-58
2022/02/17 07:15:30;;;;;;;7.55;1.83;;;;;;;5.29;66.83;99040.94;4985191;28;20059;-55
2022/02/17 07:17:56;;;;;;;4.70;0.40;;;;;;;5.29;67.06;99046.06;4987306;28;20055;-57
2022/02/17 07:20:23;;;;;;;6.60;2.17;;;;;;;5.28;66.94;99049.50;4986537;28;20049;-59
2022/02/17 07:22:50;;;;;;;4.35;0.80;;;;;;;5.27;66.73;99052.91;4986540;28;20405;-57
2022/02/17 07:25:16;;;;;;;8.02;0.47;;;;;;;5.26;66.47;99058.88;4986798;28;20177;-58
2022/02/17 07:27:43;;;;;;;7.82;1.67;;;;;;;5.29;66.41;99064.03;4987656;28;20050;-57
2022/02/17 07:30:10;;;;;;;3.95;2.05;;;;;;;5.32;66.21;99074.31;4986775;28;20141;-57
2022/02/17 07:32:40;;;;;;;4.97;0.95;;;;;;;5.34;66.59;99072.59;4986624;28;20487;-58
2022/02/17 07:35:07;;;;;;;11.25;1.90;;;;;;;5.37;66.36;99077.75;4987014;28;20054;-56
2022/02/17 07:37:34;;;;;;;28.05;11.70;;;;;;;5.45;66.35;99080.34;4984398;28;21575;-57
2022/02/17 07:40:01;;;;;;;70.53;21.33;;;;;;;5.54;66.61;99084.63;4985975;28;20076;-59
2022/02/17 07:42:32;;;;;;;51.95;20.90;;;;;;;5.65;66.26;99089.81;4981805;28;20053;-58
2022/02/17 07:45:00;;;;;;;9.07;5.80;;;;;;;5.77;66.92;99087.25;4984104;28;20163;-58
2022/02/17 07:47:27;;;;;;;9.45;3.75;;;;;;;5.88;65.18;99094.13;4985752;28;20475;-55
2022/02/17 07:49:54;;;;;;;7.30;2.83;;;;;;;5.90;65.55;99102.69;4980089;28;20050;-58
2022/02/17 07:52:21;;;;;;;5.07;2.78;;;;;;;5.96;64.90;99119.84;4982941;28;21195;-56
2022/02/17 07:54:47;;;;;;;3.83;0.50;;;;;;;5.98;66.15;99125.84;4986155;28;20536;-57
2022/02/17 07:57:14;;;;;;;3.83;1.60;;;;;;;5.95;65.56;99102.69;4985146;28;20746;-58
2022/02/17 07:59:41;;;;;;;3.15;1.67;;;;;;;5.94;67.06;99111.28;4979694;28;20125;-58
2022/02/17 08:02:10;;;;;;;6.25;1.42;;;;;;;5.85;67.23;99120.69;4978883;28;20486;-59
2022/02/17 08:04:36;;;;;;;2.80;1.50;;;;;;;5.81;66.95;99138.66;4981947;28;20043;-59
2022/02/17 08:07:04;;;;;;;3.08;1.55;;;;;;;5.75;68.16;99129.22;4981398;28;20054;-59
2022/02/17 08:09:32;;;;;;;6.38;1.67;;;;;;;5.69;68.69;99130.06;4980639;28;20046;-59
2022/02/17 08:11:58;;;;;;;7.50;1.15;;;;;;;5.69;68.83;99144.63;4983812;28;20108;-57
2022/02/17 08:14:25;;;;;;;7.70;1.30;;;;;;;5.66;68.20;99150.63;4983652;28;20050;-58
2022/02/17 08:16:52;;;;;;;10.60;4.47;;;;;;;5.64;67.80;99155.75;4985671;28;20101;-56
2022/02/17 08:19:20;;;;;;;13.73;2.42;;;;;;;5.61;68.90;99157.47;4982011;28;20133;-58
2022/02/17 08:21:46;;;;;;;11.70;4.00;;;;;;;5.59;68.02;99175.44;4983237;28;20129;-59
2022/02/17 08:24:15;;;;;;;9.07;4.05;;;;;;;5.86;69.25;99184.09;4983388;28;20081;-58
2022/02/17 08:26:42;;;;;;;4.57;0.68;;;;;;;6.41;68.10;99174.75;4976859;28;20069;-58
2022/02/17 08:29:09;;;;;;;1.60;0.47;;;;;;;7.06;65.85;99184.13;4978586;28;20057;-58
2022/02/17 08:31:36;;;;;;;2.15;1.15;;;;;;;7.37;65.23;99177.16;4983560;28;20089;-58
2022/02/17 08:34:04;;;;;;;4.07;1.40;;;;;;;7.97;63.76;99188.91;4973606;28;20491;-59
2022/02/17 08:36:32;;;;;;;2.85;1.88;;;;;;;8.74;62.78;99192.69;4980047;28;20045;-56
2022/02/17 08:38:59;;;;;;;0.95;0.20;;;;;;;9.30;58.94;99180.06;4980241;28;20141;-56
2022/02/17 08:41:26;;;;;;;2.08;0.40;;;;;;;9.90;57.36;99207.75;4980717;28;21380;-57
2022/02/17 08:43:52;;;;;;;3.28;1.80;;;;;;;10.40;55.09;99219.13;4984949;28;20438;-57
2022/02/17 08:46:20;;;;;;;1.60;0.40;;;;;;;10.84;54.49;99224.50;4982767;28;20050;-57
2022/02/17 08:48:47;;;;;;;2.05;0.38;;;;;;;11.15;52.93;99225.69;4980701;28;20073;-59
2022/02/17 08:51:17;;;;;;;0.80;0.20;;;;;;;11.47;51.86;99249.28;4986528;28;20092;-57
2022/02/17 08:53:44;;;;;;;1.35;0.63;;;;;;;12.01;52.58;99240.41;4981066;28;20042;-58
2022/02/17 08:56:10;;;;;;;2.97;0.50;;;;;;;12.26;50.45;99255.47;4987287;28;20061;-58
2022/02/17 08:58:37;;;;;;;2.15;1.05;;;;;;;12.42;49.78;99249.94;4980937;28;20050;-57
2022/02/17 09:01:04;;;;;;;1.60;0.30;;;;;;;12.76;48.77;99258.69;4985912;28;20050;-58
2022/02/17 09:03:30;;;;;;;3.20;0.40;;;;;;;12.90;47.80;99259.16;4983708;28;20371;-56
2022/02/17 09:05:57;;;;;;;1.63;0.75;;;;;;;13.02;46.22;99265.81;4984448;28;20418;-58
2022/02/17 09:08:41;;;;;;;3.35;0.52;;;;;;;13.52;46.03;99248.94;4983585;28;20518;-59
2022/02/17 09:11:10;;;;;;;1.38;0.30;;;;;;;13.95;46.06;99275.47;4983738;28;20073;-58
2022/02/17 09:13:37;;;;;;;1.63;0.60;;;;;;;14.31;44.20;99266.63;4981362;28;20046;-57
2022/02/17 09:16:05;;;;;;;1.90;0.88;;;;;;;14.59;43.40;99263.13;4982408;28;20050;-58
2022/02/17 09:18:32;;;;;;;2.45;0.50;;;;;;;14.96;42.64;99268.94;4976783;28;20047;-56
2022/02/17 09:20:59;;;;;;;2.90;0.80;;;;;;;15.14;41.24;99275.28;4976944;28;25251;-57
2022/02/17 09:23:25;;;;;;;3.20;0.50;;;;;;;15.26;41.18;99283.59;4983992;28;20053;-58
2022/02/17 09:25:52;;;;;;;4.13;0.32;;;;;;;15.54;39.71;99272.19;4982501;28;20105;-59
2022/02/17 09:28:18;;;;;;;4.30;0.70;;;;;;;15.87;39.87;99279.69;4986353;28;20050;-56
2022/02/17 09:30:46;;;;;;;2.78;0.65;;;;;;;16.00;39.64;99315.81;4984623;28;20082;-58
2022/02/17 09:33:13;;;;;;;4.60;0.60;;;;;;;16.16;39.55;99311.75;4987929;28;20053;-58
2022/02/17 09:35:39;;;;;;;6.18;1.10;;;;;;;16.56;37.99;99313.72;4982996;28;20050;-58
2022/02/17 09:38:06;;;;;;;4.03;0.75;;;;;;;16.56;37.16;99343.31;4982342;28;20109;-58
2022/02/17 09:40:35;;;;;;;4.65;0.43;;;;;;;16.88;38.29;99345.56;4986859;28;20121;-58
2022/02/17 09:43:02;;;;;;;3.08;0.98;;;;;;;17.05;37.36;99344.03;4985380;28;20054;-58
2022/02/17 09:45:28;;;;;;;3.70;0.82;;;;;;;17.32;35.89;99339.47;4978325;28;20042;-58
2022/02/17 09:47:56;;;;;;;3.13;0.82;;;;;;;17.44;35.88;99343.34;4977427;28;20047;-58
2022/02/17 09:50:22;;;;;;;4.63;1.15;;;;;;;17.50;37.05;99355.31;4980706;28;20518;-57
2022/02/17 09:52:49;;;;;;;3.70;0.75;;;;;;;18.02;37.06;99358.31;4972077;28;20064;-59
2022/02/17 09:55:17;;;;;;;5.95;0.93;;;;;;;17.52;34.83;99355.22;4976324;28;20059;-57
2022/02/17 09:57:43;;;;;;;2.70;0.60;;;;;;;17.44;36.01;99374.75;4978268;28;20046;-56
2022/02/17 10:00:12;;;;;;;3.10;0.70;;;;;;;16.75;36.55;99378.38;4978577;28;20047;-57
2022/02/17 10:02:41;;;;;;;5.32;1.13;;;;;;;17.11;37.94;99379.59;4983927;28;20050;-58
2022/02/17 10:05:11;;;;;;;2.92;1.92;;;;;;;17.21;36.24;99379.16;4981517;28;20430;-53
2022/02/17 10:07:42;;;;;;;4.05;1.38;;;;;;;16.75;36.41;99381.81;4982721;28;20046;-58
2022/02/17 10:10:13;;;;;;;5.47;0.63;;;;;;;16.88;36.32;99390.03;4977869;28;20058;-56
2022/02/17 10:13:04;;;;;;;2.78;0.52;;;;;;;16.22;34.04;99388.19;4982808;28;20173;-57
2022/02/17 10:15:35;;;;;;;3.70;0.30;;;;;;;16.43;36.16;99387.41;5006016;28;20135;-54
2022/02/17 10:18:09;;;;;;;2.40;0.60;;;;;;;16.43;36.22;99394.38;4985670;28;20757;-58
2022/02/17 10:21:01;;;;;;;2.83;0.68;;;;;;;15.99;35.26;99413.38;4981074;28;21046;-59
2022/02/17 10:23:30;;;;;;;2.63;0.68;;;;;;;15.58;36.41;99409.50;4994892;28;20054;-56
2022/02/17 10:26:24;;;;;;;3.13;0.70;;;;;;;15.78;36.05;99405.38;4983225;28;20542;-54
2022/02/17 10:28:57;;;;;;;3.30;0.88;;;;;;;16.07;36.28;99421.78;4984448;28;20062;-56
2022/02/17 10:31:28;;;;;;;2.47;0.75;;;;;;;16.14;35.57;99417.22;4982981;28;20054;-56
2022/02/17 10:33:57;;;;;;;5.30;1.20;;;;;;;16.17;35.50;99428.38;4983080;28;20058;-57
2022/02/17 10:36:44;;;;;;;4.57;0.80;;;;;;;16.05;34.68;99436.66;4981654;28;20104;-56
2022/02/17 10:39:14;;;;;;;2.58;0.80;;;;;;;16.19;35.03;99436.19;4982957;28;20483;-57
2022/02/17 10:41:59;;;;;;;2.65;1.00;;;;;;;16.53;35.09;99439.31;4982006;28;20062;-54
2022/02/17 10:44:32;;;;;;;3.88;0.68;;;;;;;16.67;35.78;99442.25;4986677;28;20058;-57
2022/02/17 10:47:22;;;;;;;4.07;0.68;;;;;;;16.21;33.25;99449.19;5016519;28;20055;-55
2022/02/17 10:49:51;;;;;;;2.38;0.93;;;;;;;15.70;34.82;99433.50;4988000;28;20136;-57
2022/02/17 10:52:29;;;;;;;6.82;1.42;;;;;;;15.28;35.51;99448.75;4988498;28;20058;-53
2022/02/17 10:55:17;;;;;;;2.53;0.57;;;;;;;14.68;37.14;99430.53;4987562;28;20572;-55
2022/02/17 10:57:45;;;;;;;3.17;1.05;;;;;;;14.56;37.13;99435.22;4989286;28;20070;-56
2022/02/17 11:00:16;;;;;;;3.38;0.60;;;;;;;14.59;37.13;99445.56;4987863;28;20053;-56
2022/02/17 11:02:45;;;;;;;1.98;0.70;;;;;;;14.36;37.00;99449.66;4986286;28;20054;-56
2022/02/17 11:05:15;;;;;;;1.77;0.60;;;;;;;14.03;38.03;99464.47;4989362;28;20050;-55
2022/02/17 11:07:43;;;;;;;1.67;0.40;;;;;;;13.91;38.50;99458.69;4987052;28;20054;-57
2022/02/17 11:10:11;;;;;;;7.15;0.80;;;;;;;13.50;38.19;99474.44;4985439;28;20073;-57
2022/02/17 11:12:40;;;;;;;4.03;0.50;;;;;;;13.31;39.29;99466.22;4987453;28;20054;-55
2022/02/17 11:15:08;;;;;;;5.18;1.25;;;;;;;13.02;39.20;99476.38;5021648;28;20046;-58
2022/02/17 11:17:38;;;;;;;3.50;0.38;;;;;;;12.96;40.01;99469.56;4985418;28;20541;-56
2022/02/17 11:20:17;;;;;;;1.92;0.57;;;;;;;12.75;39.47;99463.09;4989993;28;20059;-56
2022/02/17 11:22:47;;;;;;;5.35;0.90;;;;;;;12.68;41.18;99474.50;4987440;28;20065;-54
2022/02/17 11:25:17;;;;;;;3.70;1.10;;;;;;;12.52;41.17;99472.22;4988073;28;20160;-53
2022/02/17 11:28:03;;;;;;;2.92;0.60;;;;;;;12.16;41.36;99466.84;4986976;28;20387;-54
2022/02/17 11:30:34;;;;;;;4.95;0.90;;;;;;;11.95;41.90;99480.16;4984080;28;20120;-53
2022/02/17 11:33:30;;;;;;;7.20;0.55;;;;;;;11.76;42.48;99463.19;4986826;28;20105;-57
2022/02/17 11:36:27;;;;;;;3.25;0.75;;;;;;;11.76;42.63;99455.41;4987022;28;20046;-56
2022/02/17 11:38:57;;;;;;;2.78;0.70;;;;;;;11.89;42.78;99453.47;4983029;28;20047;-57
2022/02/17 11:41:30;;;;;;;3.08;0.60;;;;;;;12.03;43.87;99454.06;4987481;28;20714;-54
2022/02/17 11:44:20;;;;;;;8.10;0.63;;;;;;;12.02;43.98;99454.94;4988079;28;20148;-56
2022/02/17 11:46:50;;;;;;;6.43;0.40;;;;;;;12.10;44.41;99461.75;4988299;28;20118;-56
2022/02/17 11:49:42;;;;;;;5.30;0.93;;;;;;;11.97;44.28;99472.34;4984483;28;20654;-56